Terminal Aerodrome Forecast
Issued by NWS

Home | Current Version | Previous Version | Text Only | Print | Product List | Glossary On
Versions: 1 2 3 4 5 6 7 8 9 10 11 12 13 14 15 16 17 18
511
FTUS45 KFGZ 282340
TAFGCN
TAF
KGCN 282340Z 2900/2924 11010G15KT P6SM FEW110 SCT150
     FM290130 VRB03KT P6SM SCT110
     FM291800 VRB05KT P6SM BKN110=

USA.gov is the U.S. government's official web portal to all federal, state and local government web resources and services.